createdAt,value
2024-03-27T00:00:25.571Z,1070.00
2024-03-27T00:01:25.711Z,1066.00
2024-03-27T00:02:25.847Z,1066.00
2024-03-27T00:03:26.041Z,1063.00
2024-03-27T00:04:26.202Z,1073.00
2024-03-27T00:05:26.319Z,1081.00
2024-03-27T00:06:26.486Z,1097.00
2024-03-27T00:07:26.678Z,1091.00
2024-03-27T00:08:26.833Z,1095.00
2024-03-27T00:09:27.005Z,1089.00
2024-03-27T00:10:29.001Z,1096.00
2024-03-27T00:11:27.166Z,1118.00
2024-03-27T00:12:27.171Z,1070.00
2024-03-27T00:13:27.172Z,1083.00
2024-03-27T00:14:27.207Z,1107.00
2024-03-27T00:15:27.158Z,1087.00
2024-03-27T00:16:27.161Z,1054.00
2024-03-27T00:17:27.180Z,1056.00
2024-03-27T00:18:27.186Z,1072.00
2024-03-27T00:19:27.171Z,1037.00
2024-03-27T00:20:27.186Z,1067.00
2024-03-27T00:21:28.969Z,1083.00
2024-03-27T00:22:27.192Z,1096.00
2024-03-27T00:23:27.198Z,1075.00
2024-03-27T00:24:27.212Z,1080.00
2024-03-27T00:25:27.223Z,1110.00
2024-03-27T00:26:27.156Z,1130.00
2024-03-27T00:27:27.175Z,1079.00
2024-03-27T00:28:27.168Z,1103.00
2024-03-27T00:29:27.186Z,1110.00
2024-03-27T00:30:27.202Z,1128.00
2024-03-27T00:31:27.169Z,1133.00
2024-03-27T00:32:27.190Z,1121.00
2024-03-27T00:33:27.177Z,1128.00
2024-03-27T00:34:27.215Z,1127.00
2024-03-27T00:35:27.186Z,1112.00
2024-03-27T00:36:27.349Z,1118.00
2024-03-27T00:37:27.463Z,1111.00
2024-03-27T00:38:27.586Z,1103.00
2024-03-27T00:39:27.859Z,1098.00
2024-03-27T00:40:27.931Z,1094.00
2024-03-27T00:41:28.060Z,1082.00
2024-03-27T00:42:28.240Z,1108.00
2024-03-27T00:43:28.409Z,1103.00
2024-03-27T00:44:28.559Z,1090.00
2024-03-27T00:45:28.697Z,1075.00
2024-03-27T00:46:28.860Z,1086.00
2024-03-27T00:47:29.004Z,1075.00
2024-03-27T00:48:29.218Z,1097.00
2024-03-27T00:49:29.369Z,1117.00
2024-03-27T00:50:29.483Z,1113.00
2024-03-27T00:51:29.653Z,1130.00
2024-03-27T00:52:29.801Z,1134.00
2024-03-27T00:53:30.045Z,1127.00
2024-03-27T00:54:30.156Z,1135.00
2024-03-27T00:55:30.252Z,1133.00
2024-03-27T00:56:30.408Z,1109.00
2024-03-27T00:57:30.579Z,1110.00
2024-03-27T00:58:30.718Z,1127.00
2024-03-27T00:59:30.906Z,1111.00
2024-03-27T01:00:31.060Z,1126.00
2024-03-27T01:01:31.192Z,1145.00
2024-03-27T01:02:31.368Z,1137.00
2024-03-27T01:03:31.524Z,1138.00
2024-03-27T01:04:31.666Z,1139.00
2024-03-27T01:05:31.839Z,1141.00
2024-03-27T01:06:31.984Z,1153.00
2024-03-27T01:07:32.138Z,1150.00
2024-03-27T01:08:32.279Z,1145.00
2024-03-27T01:09:32.410Z,1149.00
2024-03-27T01:10:32.568Z,1142.00
2024-03-27T01:11:32.706Z,1157.00
2024-03-27T01:12:32.850Z,1146.00
2024-03-27T01:13:33.023Z,1148.00
2024-03-27T01:14:33.114Z,1137.00
2024-03-27T01:15:33.246Z,1134.00
2024-03-27T01:16:33.392Z,1139.00
2024-03-27T01:17:33.583Z,1120.00
2024-03-27T01:18:33.706Z,1108.00
2024-03-27T01:19:33.827Z,1099.00
2024-03-27T01:20:33.940Z,1137.00
2024-03-27T01:21:34.078Z,1134.00
2024-03-27T01:22:34.237Z,1132.00
2024-03-27T01:23:34.397Z,1144.00
2024-03-27T01:24:34.556Z,1142.00
2024-03-27T01:25:34.590Z,1139.00
2024-03-27T01:26:34.663Z,1134.00
2024-03-27T01:27:34.723Z,1146.00
2024-03-27T01:28:34.850Z,1140.00
2024-03-27T01:29:34.893Z,1149.00
2024-03-27T01:30:34.956Z,1141.00
2024-03-27T01:31:35.124Z,1150.00
2024-03-27T01:32:35.267Z,1169.00
2024-03-27T01:33:35.475Z,1170.00
2024-03-27T01:34:35.560Z,1184.00
2024-03-27T01:35:35.700Z,1176.00
2024-03-27T01:36:35.827Z,1169.00
2024-03-27T01:37:35.957Z,1180.00
2024-03-27T01:38:36.096Z,1171.00
2024-03-27T01:39:36.254Z,1168.00
2024-03-27T01:40:36.396Z,1161.00
2024-03-27T01:41:36.532Z,1149.00
2024-03-27T01:42:36.667Z,1158.00
2024-03-27T01:43:36.816Z,1151.00
2024-03-27T01:44:36.954Z,1163.00
2024-03-27T01:45:37.103Z,1144.00
2024-03-27T01:46:37.219Z,1157.00
2024-03-27T01:47:37.372Z,1161.00
2024-03-27T01:48:37.509Z,1160.00
2024-03-27T01:49:37.705Z,1149.00
2024-03-27T01:50:37.802Z,1141.00
2024-03-27T01:51:37.935Z,1118.00
2024-03-27T01:52:38.082Z,1080.00
2024-03-27T01:53:38.209Z,1070.00
2024-03-27T01:54:38.367Z,1044.00
2024-03-27T01:55:38.508Z,1014.00
2024-03-27T01:56:38.653Z,1012.00
2024-03-27T01:57:38.814Z,1009.00
2024-03-27T01:58:38.942Z,1000.00
2024-03-27T01:59:39.083Z,966.00
2024-03-27T02:00:39.246Z,957.00
2024-03-27T02:01:39.406Z,945.00
2024-03-27T02:02:39.518Z,939.00
2024-03-27T02:03:39.707Z,928.00
2024-03-27T02:04:39.842Z,931.00
2024-03-27T02:05:39.985Z,905.00
2024-03-27T02:06:40.117Z,891.00
2024-03-27T02:07:40.269Z,886.00
2024-03-27T02:08:40.421Z,878.00
2024-03-27T02:09:40.583Z,885.00
2024-03-27T02:10:40.785Z,872.00
2024-03-27T02:11:40.891Z,887.00
2024-03-27T02:12:41.042Z,931.00
2024-03-27T02:13:43.832Z,964.00
2024-03-27T02:14:41.237Z,984.00
2024-03-27T02:15:41.190Z,995.00
2024-03-27T02:16:41.188Z,992.00
2024-03-27T02:17:41.183Z,991.00
2024-03-27T02:18:41.220Z,982.00
2024-03-27T02:19:41.209Z,894.00
2024-03-27T02:20:41.216Z,823.00
2024-03-27T02:21:41.201Z,817.00
2024-03-27T02:22:41.198Z,861.00
2024-03-27T02:23:41.231Z,839.00
2024-03-27T02:24:41.221Z,816.00
2024-03-27T02:25:41.208Z,810.00
2024-03-27T02:26:41.217Z,848.00
2024-03-27T02:27:41.186Z,870.00
2024-03-27T02:28:41.237Z,896.00
2024-03-27T02:29:41.196Z,868.00
2024-03-27T02:30:41.208Z,866.00
2024-03-27T02:31:41.205Z,875.00
2024-03-27T02:32:41.213Z,901.00
2024-03-27T02:33:41.208Z,864.00
2024-03-27T02:34:41.203Z,831.00
2024-03-27T02:35:41.219Z,813.00
2024-03-27T02:36:41.225Z,800.00
2024-03-27T02:37:41.238Z,800.00
2024-03-27T02:38:41.205Z,802.00
2024-03-27T02:39:41.264Z,795.00
2024-03-27T02:40:41.204Z,790.00
2024-03-27T02:41:41.206Z,792.00
2024-03-27T02:42:41.221Z,808.00
2024-03-27T02:43:41.240Z,788.00
2024-03-27T02:44:41.235Z,782.00
2024-03-27T02:45:41.246Z,787.00
2024-03-27T02:46:41.246Z,796.00
2024-03-27T02:47:41.244Z,766.00
2024-03-27T02:48:41.261Z,788.00
2024-03-27T02:49:41.272Z,816.00
2024-03-27T02:50:41.242Z,794.00
2024-03-27T02:51:41.242Z,727.00
2024-03-27T02:52:41.218Z,708.00
2024-03-27T02:53:41.229Z,705.00
2024-03-27T02:54:41.245Z,705.00
2024-03-27T02:55:41.231Z,705.00
2024-03-27T02:56:41.260Z,720.00
2024-03-27T02:57:41.251Z,730.00
2024-03-27T02:58:41.218Z,754.00
2024-03-27T02:59:41.257Z,763.00
2024-03-27T03:00:41.406Z,773.00
2024-03-27T03:01:41.236Z,770.00
2024-03-27T03:02:41.247Z,783.00
2024-03-27T03:03:41.254Z,790.00
2024-03-27T03:04:41.292Z,808.00
2024-03-27T03:05:41.368Z,782.00
2024-03-27T03:06:41.522Z,783.00
2024-03-27T03:07:41.674Z,806.00
2024-03-27T03:08:41.819Z,808.00
2024-03-27T03:09:41.955Z,839.00
2024-03-27T03:10:42.154Z,898.00
2024-03-27T03:11:42.240Z,926.00
2024-03-27T03:12:42.392Z,899.00
2024-03-27T03:13:42.535Z,912.00
2024-03-27T03:14:42.696Z,905.00
2024-03-27T03:15:42.864Z,892.00
2024-03-27T03:16:42.988Z,873.00
2024-03-27T03:17:43.145Z,855.00
2024-03-27T03:18:43.304Z,823.00
2024-03-27T03:19:43.443Z,809.00
2024-03-27T03:20:43.587Z,818.00
2024-03-27T03:21:43.699Z,822.00
2024-03-27T03:23:32.585Z,600.00
2024-03-27T03:24:32.559Z,600.00
2024-03-27T03:25:32.558Z,600.00
2024-03-27T03:26:32.578Z,600.00
2024-03-27T03:27:32.622Z,600.00
2024-03-27T03:28:32.564Z,601.00
2024-03-27T03:29:32.570Z,600.00
2024-03-27T03:30:32.563Z,601.00
2024-03-27T03:31:32.546Z,628.00
2024-03-27T03:32:32.591Z,644.00
2024-03-27T03:33:32.597Z,641.00
2024-03-27T03:34:32.566Z,647.00
2024-03-27T03:35:32.593Z,631.00
2024-03-27T03:36:32.610Z,656.00
2024-03-27T03:37:32.609Z,677.00
2024-03-27T03:38:32.588Z,665.00
2024-03-27T03:39:32.612Z,653.00
2024-03-27T03:40:32.592Z,653.00
2024-03-27T03:41:32.570Z,705.00
2024-03-27T03:42:32.602Z,679.00
2024-03-27T03:43:32.590Z,654.00
2024-03-27T03:44:32.631Z,654.00
2024-03-27T03:45:32.632Z,664.00
2024-03-27T03:46:32.605Z,660.00
2024-03-27T03:47:32.663Z,638.00
2024-03-27T03:48:32.651Z,630.00
2024-03-27T03:49:32.660Z,618.00
2024-03-27T03:50:32.652Z,607.00
2024-03-27T03:51:32.660Z,614.00
2024-03-27T03:52:32.617Z,635.00
2024-03-27T03:53:32.609Z,649.00
2024-03-27T03:54:32.672Z,657.00
2024-03-27T03:55:32.626Z,640.00
2024-03-27T03:56:32.650Z,628.00
2024-03-27T03:57:32.699Z,610.00
2024-03-27T03:58:54.734Z,600.00
2024-03-27T03:59:54.753Z,600.00
2024-03-27T04:00:54.753Z,600.00
2024-03-27T04:01:54.757Z,600.00
2024-03-27T04:02:54.729Z,600.00
2024-03-27T04:03:54.731Z,604.00
2024-03-27T04:04:54.751Z,599.00
2024-03-27T04:05:54.747Z,603.00
2024-03-27T04:06:54.727Z,604.00
2024-03-27T04:07:54.759Z,602.00
2024-03-27T04:08:54.736Z,607.00
2024-03-27T04:09:54.769Z,619.00
2024-03-27T04:10:54.765Z,618.00
2024-03-27T04:11:54.771Z,628.00
2024-03-27T04:12:54.751Z,638.00
2024-03-27T04:13:54.760Z,646.00
2024-03-27T04:14:54.747Z,654.00
2024-03-27T04:15:54.753Z,656.00
2024-03-27T04:16:54.786Z,655.00
2024-03-27T04:17:54.804Z,651.00
2024-03-27T04:18:54.798Z,639.00
2024-03-27T04:19:54.788Z,636.00
2024-03-27T04:20:54.780Z,659.00
2024-03-27T04:21:54.791Z,666.00
2024-03-27T04:22:54.803Z,672.00
2024-03-27T04:23:54.796Z,701.00
2024-03-27T04:24:54.811Z,726.00
2024-03-27T04:26:05.525Z,700.00
2024-03-27T04:26:55.788Z,701.00
2024-03-27T04:27:54.791Z,703.00
2024-03-27T04:28:54.803Z,706.00
2024-03-27T04:29:54.854Z,710.00
2024-03-27T04:30:54.944Z,699.00
2024-03-27T04:32:02.297Z,600.00
2024-03-27T04:33:02.351Z,600.00
2024-03-27T04:34:02.296Z,600.00
2024-03-27T04:35:02.305Z,600.00
2024-03-27T04:36:03.119Z,600.00
2024-03-27T04:37:02.300Z,607.00
2024-03-27T04:38:02.303Z,613.00
2024-03-27T04:39:02.311Z,621.00
2024-03-27T04:40:02.310Z,622.00
2024-03-27T04:41:02.294Z,616.00
2024-03-27T04:42:02.344Z,608.00
2024-03-27T04:43:02.309Z,614.00
2024-03-27T04:44:02.326Z,645.00
2024-03-27T04:45:02.368Z,648.00
2024-03-27T04:46:02.363Z,646.00
2024-03-27T04:47:02.319Z,638.00
2024-03-27T04:48:02.353Z,638.00
2024-03-27T04:49:02.335Z,640.00
2024-03-27T04:50:02.345Z,622.00
2024-03-27T04:51:02.337Z,617.00
2024-03-27T04:52:02.335Z,623.00
2024-03-27T04:53:02.328Z,621.00
2024-03-27T04:54:02.325Z,617.00
2024-03-27T04:55:02.377Z,618.00
2024-03-27T04:56:02.342Z,638.00
2024-03-27T04:57:02.347Z,646.00
2024-03-27T04:58:02.349Z,640.00
2024-03-27T04:59:02.353Z,641.00
2024-03-27T05:00:02.436Z,654.00
2024-03-27T05:01:02.347Z,660.00
2024-03-27T05:02:02.348Z,666.00
2024-03-27T05:03:02.342Z,671.00
2024-03-27T05:04:02.488Z,663.00
2024-03-27T05:05:02.665Z,651.00
2024-03-27T05:06:02.812Z,643.00
2024-03-27T05:07:02.939Z,626.00
2024-03-27T05:08:03.103Z,615.00
2024-03-27T05:09:03.255Z,618.00
2024-03-27T05:10:03.432Z,632.00
2024-03-27T05:11:03.590Z,640.00
2024-03-27T05:12:03.739Z,635.00
2024-03-27T05:13:03.935Z,652.00
2024-03-27T05:14:04.076Z,654.00
2024-03-27T05:15:04.229Z,653.00
2024-03-27T05:16:04.354Z,656.00
2024-03-27T05:17:04.536Z,652.00
2024-03-27T05:18:04.651Z,659.00
2024-03-27T05:19:04.867Z,687.00
2024-03-27T05:20:05.001Z,698.00
2024-03-27T05:21:05.166Z,681.00
2024-03-27T05:22:05.296Z,673.00
2024-03-27T05:23:05.456Z,669.00
2024-03-27T05:24:05.638Z,663.00
2024-03-27T05:25:05.771Z,687.00
2024-03-27T05:26:05.943Z,669.00
2024-03-27T05:27:06.106Z,683.00
2024-03-27T05:28:06.258Z,667.00
2024-03-27T05:29:06.423Z,710.00
2024-03-27T05:30:06.579Z,691.00
2024-03-27T05:31:06.714Z,671.00
2024-03-27T05:32:06.876Z,646.00
2024-03-27T05:33:07.031Z,659.00
2024-03-27T05:34:07.200Z,680.00
2024-03-27T05:35:07.344Z,669.00
2024-03-27T05:36:17.111Z,690.00
2024-03-27T05:37:08.532Z,691.00
2024-03-27T05:38:07.537Z,694.00
2024-03-27T05:39:07.554Z,702.00
2024-03-27T05:40:07.552Z,712.00
2024-03-27T05:41:07.538Z,745.00
2024-03-27T05:42:08.196Z,754.00
2024-03-27T05:43:07.549Z,721.00
2024-03-27T05:44:07.543Z,750.00
2024-03-27T05:45:07.516Z,754.00
2024-03-27T05:46:07.520Z,756.00
2024-03-27T05:47:07.528Z,767.00
2024-03-27T05:48:07.543Z,756.00
2024-03-27T05:49:07.596Z,762.00
2024-03-27T05:50:07.558Z,756.00
2024-03-27T05:51:07.540Z,757.00
2024-03-27T05:52:07.728Z,772.00
2024-03-27T05:53:07.854Z,748.00
2024-03-27T05:54:08.048Z,746.00
2024-03-27T05:55:08.197Z,755.00
2024-03-27T05:56:08.342Z,760.00
2024-03-27T05:57:08.500Z,754.00
2024-03-27T05:58:08.698Z,752.00
2024-03-27T05:59:08.839Z,746.00
2024-03-27T06:00:08.987Z,750.00
2024-03-27T06:01:09.152Z,745.00
2024-03-27T06:02:09.284Z,751.00
2024-03-27T06:03:09.450Z,758.00
2024-03-27T06:04:09.589Z,756.00
2024-03-27T06:05:09.772Z,741.00
2024-03-27T06:06:09.914Z,746.00
2024-03-27T06:07:10.158Z,756.00
2024-03-27T06:08:10.239Z,747.00
2024-03-27T06:09:10.363Z,726.00
2024-03-27T06:10:10.629Z,747.00
2024-03-27T06:11:10.711Z,757.00
2024-03-27T06:12:10.841Z,758.00
2024-03-27T06:13:10.990Z,757.00
2024-03-27T06:14:11.168Z,756.00
2024-03-27T06:15:11.318Z,765.00
2024-03-27T06:16:11.521Z,764.00
2024-03-27T06:17:11.628Z,760.00
2024-03-27T06:18:11.781Z,759.00
2024-03-27T06:19:11.911Z,741.00
2024-03-27T06:20:12.095Z,741.00
2024-03-27T06:21:12.222Z,747.00
2024-03-27T06:22:12.392Z,752.00
2024-03-27T06:23:12.550Z,746.00
2024-03-27T06:24:12.700Z,744.00
2024-03-27T06:25:12.872Z,735.00
2024-03-27T06:26:12.956Z,743.00
2024-03-27T06:27:13.123Z,750.00
2024-03-27T06:28:13.287Z,725.00
2024-03-27T06:29:13.430Z,728.00
2024-03-27T06:30:13.601Z,706.00
2024-03-27T06:31:13.768Z,667.00
2024-03-27T06:32:13.921Z,686.00
2024-03-27T06:33:14.029Z,706.00
2024-03-27T06:34:14.203Z,681.00
2024-03-27T06:35:14.363Z,685.00
2024-03-27T06:36:14.510Z,672.00
2024-03-27T06:37:14.670Z,666.00
2024-03-27T06:38:14.829Z,671.00
2024-03-27T06:39:14.944Z,673.00
2024-03-27T06:40:15.130Z,664.00
2024-03-27T06:41:15.274Z,661.00
2024-03-27T06:42:15.423Z,663.00
2024-03-27T06:43:15.572Z,665.00
2024-03-27T06:44:15.729Z,659.00
2024-03-27T06:45:21.768Z,662.00
2024-03-27T06:46:16.900Z,662.00
2024-03-27T06:47:15.878Z,663.00
2024-03-27T06:48:15.871Z,663.00
2024-03-27T06:49:15.923Z,665.00
2024-03-27T06:50:15.906Z,669.00
2024-03-27T06:51:15.892Z,672.00
2024-03-27T06:52:15.893Z,669.00
2024-03-27T06:53:15.906Z,669.00
2024-03-27T06:54:15.908Z,664.00
2024-03-27T06:55:15.904Z,674.00
2024-03-27T06:56:15.895Z,661.00
2024-03-27T06:57:15.923Z,656.00
2024-03-27T06:58:15.907Z,657.00
2024-03-27T06:59:15.914Z,668.00
2024-03-27T07:00:15.920Z,673.00
2024-03-27T07:01:23.431Z,664.00
2024-03-27T07:02:16.928Z,664.00
2024-03-27T07:03:15.905Z,660.00
2024-03-27T07:04:15.916Z,661.00
2024-03-27T07:05:15.962Z,664.00
2024-03-27T07:06:15.907Z,662.00
2024-03-27T07:07:15.922Z,654.00
2024-03-27T07:08:15.925Z,662.00
2024-03-27T07:09:15.960Z,665.00
2024-03-27T07:10:15.934Z,657.00
2024-03-27T07:11:15.925Z,657.00
2024-03-27T07:12:16.045Z,663.00
2024-03-27T07:13:16.103Z,660.00
2024-03-27T07:14:16.165Z,656.00
2024-03-27T07:15:16.274Z,650.00
2024-03-27T07:16:16.380Z,648.00
2024-03-27T07:17:16.516Z,649.00
2024-03-27T07:18:16.637Z,645.00
2024-03-27T07:19:16.732Z,641.00
2024-03-27T07:20:16.832Z,643.00
2024-03-27T07:21:16.936Z,636.00
2024-03-27T07:22:17.030Z,641.00
2024-03-27T07:23:17.116Z,638.00
2024-03-27T07:24:17.183Z,635.00
2024-03-27T07:25:19.427Z,630.00
2024-03-27T07:26:17.294Z,634.00
2024-03-27T07:27:17.291Z,635.00
2024-03-27T07:28:17.319Z,628.00
2024-03-27T07:29:17.289Z,629.00
2024-03-27T07:30:17.294Z,627.00
2024-03-27T07:31:17.346Z,626.00
2024-03-27T07:32:17.295Z,634.00
2024-03-27T07:33:17.287Z,633.00
2024-03-27T07:34:17.292Z,635.00
2024-03-27T07:35:17.295Z,641.00
2024-03-27T07:36:17.306Z,644.00
2024-03-27T07:37:17.319Z,640.00
2024-03-27T07:38:17.299Z,640.00
2024-03-27T07:39:17.304Z,643.00
2024-03-27T07:40:17.314Z,644.00
2024-03-27T07:41:17.302Z,653.00
2024-03-27T07:42:17.315Z,653.00
2024-03-27T07:43:17.289Z,652.00
2024-03-27T07:44:17.323Z,654.00
2024-03-27T07:45:17.303Z,658.00
2024-03-27T07:46:17.325Z,659.00
2024-03-27T07:47:17.315Z,656.00
2024-03-27T07:48:17.329Z,660.00
2024-03-27T07:49:17.318Z,653.00
2024-03-27T07:50:17.315Z,658.00
2024-03-27T07:51:17.295Z,655.00
2024-03-27T07:52:17.317Z,658.00
2024-03-27T07:53:17.400Z,656.00
2024-03-27T07:54:17.650Z,658.00
2024-03-27T07:55:17.608Z,655.00
2024-03-27T07:56:17.726Z,659.00
2024-03-27T07:57:17.821Z,653.00
2024-03-27T07:58:17.946Z,654.00
2024-03-27T07:59:18.068Z,652.00
2024-03-27T08:00:18.172Z,652.00
2024-03-27T08:01:18.278Z,655.00
2024-03-27T08:02:18.377Z,659.00
2024-03-27T08:03:18.497Z,661.00
2024-03-27T08:04:18.594Z,661.00
2024-03-27T08:05:18.737Z,653.00
2024-03-27T08:06:18.878Z,663.00
2024-03-27T08:07:18.936Z,652.00
2024-03-27T08:08:19.071Z,647.00
2024-03-27T08:09:19.142Z,651.00
2024-03-27T08:10:19.288Z,650.00
2024-03-27T08:11:19.369Z,652.00
2024-03-27T08:12:19.486Z,644.00
2024-03-27T08:13:19.604Z,646.00
2024-03-27T08:14:19.723Z,643.00
2024-03-27T08:15:19.850Z,641.00
2024-03-27T08:16:19.927Z,639.00
2024-03-27T08:17:20.110Z,635.00
2024-03-27T08:18:20.130Z,643.00
2024-03-27T08:19:20.251Z,632.00
2024-03-27T08:20:20.367Z,636.00
2024-03-27T08:21:20.484Z,635.00
2024-03-27T08:22:20.601Z,635.00
2024-03-27T08:23:20.703Z,636.00
2024-03-27T08:24:20.822Z,639.00
2024-03-27T08:25:20.968Z,638.00
2024-03-27T08:26:21.051Z,642.00
2024-03-27T08:27:21.165Z,640.00
2024-03-27T08:28:21.275Z,631.00
2024-03-27T08:29:21.409Z,631.00
2024-03-27T08:30:21.546Z,635.00
2024-03-27T08:31:21.603Z,630.00
2024-03-27T08:32:21.746Z,637.00
2024-03-27T08:33:21.917Z,632.00
2024-03-27T08:34:27.557Z,630.00
2024-03-27T08:35:23.008Z,628.00
2024-03-27T08:36:30.526Z,626.00
2024-03-27T08:37:23.001Z,630.00
2024-03-27T08:38:21.981Z,630.00
2024-03-27T08:39:21.999Z,620.00
2024-03-27T08:40:22.001Z,619.00
2024-03-27T08:41:22.024Z,620.00
2024-03-27T08:42:22.033Z,619.00
2024-03-27T08:43:22.035Z,615.00
2024-03-27T08:44:22.019Z,615.00
2024-03-27T08:45:22.026Z,617.00
2024-03-27T08:46:22.117Z,611.00
2024-03-27T08:47:22.223Z,616.00
2024-03-27T08:48:22.330Z,603.00
2024-03-27T08:49:22.454Z,601.00
2024-03-27T08:50:22.556Z,603.00
2024-03-27T08:51:22.656Z,602.00
2024-03-27T08:52:22.764Z,603.00
2024-03-27T08:53:23.008Z,608.00
2024-03-27T08:54:22.962Z,606.00
2024-03-27T08:55:23.095Z,611.00
2024-03-27T08:56:23.195Z,605.00
2024-03-27T08:57:23.312Z,603.00
2024-03-27T08:58:23.423Z,604.00
2024-03-27T08:59:23.515Z,606.00
2024-03-27T09:00:24.040Z,605.00
2024-03-27T09:01:23.703Z,600.00
2024-03-27T09:02:23.729Z,604.00
2024-03-27T09:03:23.765Z,605.00
2024-03-27T09:04:23.815Z,606.00
2024-03-27T09:05:23.898Z,611.00
2024-03-27T09:06:23.886Z,612.00
2024-03-27T09:07:23.942Z,613.00
2024-03-27T09:08:24.008Z,610.00
2024-03-27T09:09:24.030Z,603.00
2024-03-27T09:10:24.093Z,614.00
2024-03-27T09:11:24.098Z,613.00
2024-03-27T09:12:24.162Z,616.00
2024-03-27T09:13:24.237Z,615.00
2024-03-27T09:14:24.252Z,615.00
2024-03-27T09:15:24.365Z,615.00
2024-03-27T09:16:24.467Z,614.00
2024-03-27T09:17:24.555Z,607.00
2024-03-27T09:18:24.656Z,605.00
2024-03-27T09:19:24.763Z,607.00
2024-03-27T09:20:24.843Z,610.00
2024-03-27T09:21:24.958Z,611.00
2024-03-27T09:22:25.069Z,607.00
2024-03-27T09:23:25.162Z,604.00
2024-03-27T09:24:25.237Z,603.00
2024-03-27T09:25:25.356Z,606.00
2024-03-27T09:26:25.424Z,605.00
2024-03-27T09:27:25.536Z,603.00
2024-03-27T09:28:25.669Z,607.00
2024-03-27T09:29:25.726Z,604.00
2024-03-27T09:30:25.822Z,605.00
2024-03-27T09:31:25.905Z,605.00
2024-03-27T09:32:25.985Z,606.00
2024-03-27T09:33:26.081Z,602.00
2024-03-27T09:34:26.185Z,605.00
2024-03-27T09:35:26.266Z,607.00
2024-03-27T09:36:26.334Z,600.00
2024-03-27T09:37:26.434Z,603.00
2024-03-27T09:38:27.915Z,606.00
2024-03-27T09:39:26.563Z,612.00
2024-03-27T09:40:26.628Z,611.00
2024-03-27T09:41:26.637Z,610.00
2024-03-27T09:42:26.710Z,611.00
2024-03-27T09:43:26.679Z,613.00
2024-03-27T09:44:26.731Z,611.00
2024-03-27T09:45:26.764Z,610.00
2024-03-27T09:46:26.827Z,607.00
2024-03-27T09:47:26.866Z,607.00
2024-03-27T09:48:26.897Z,609.00
2024-03-27T09:49:26.920Z,610.00
2024-03-27T09:50:26.981Z,609.00
2024-03-27T09:51:26.984Z,608.00
2024-03-27T09:52:27.004Z,605.00
2024-03-27T09:53:27.035Z,605.00
2024-03-27T09:54:27.108Z,607.00
2024-03-27T09:55:27.161Z,605.00
2024-03-27T09:56:27.243Z,609.00
2024-03-27T09:57:27.332Z,606.00
2024-03-27T09:58:27.390Z,608.00
2024-03-27T09:59:27.483Z,607.00
2024-03-27T10:00:27.544Z,608.00
2024-03-27T10:01:38.127Z,604.00
2024-03-27T10:02:28.641Z,605.00
2024-03-27T10:03:27.628Z,605.00
2024-03-27T10:04:27.635Z,606.00
2024-03-27T10:05:27.641Z,608.00
2024-03-27T10:06:27.634Z,609.00
2024-03-27T10:07:27.651Z,605.00
2024-03-27T10:08:27.640Z,605.00
2024-03-27T10:09:27.639Z,607.00
2024-03-27T10:10:27.658Z,611.00
2024-03-27T10:11:27.664Z,611.00
2024-03-27T10:12:27.659Z,616.00
2024-03-27T10:13:27.658Z,612.00
2024-03-27T10:14:27.667Z,615.00
2024-03-27T10:15:27.653Z,610.00
2024-03-27T10:16:27.661Z,607.00
2024-03-27T10:17:27.692Z,614.00
2024-03-27T10:18:27.713Z,615.00
2024-03-27T10:19:27.793Z,617.00
2024-03-27T10:20:27.857Z,609.00
2024-03-27T10:21:27.914Z,613.00
2024-03-27T10:22:27.999Z,614.00
2024-03-27T10:23:28.072Z,620.00
2024-03-27T10:24:28.122Z,622.00
2024-03-27T10:25:28.219Z,624.00
2024-03-27T10:26:28.293Z,627.00
2024-03-27T10:27:28.361Z,627.00
2024-03-27T10:28:28.426Z,626.00
2024-03-27T10:29:28.492Z,627.00
2024-03-27T10:30:28.588Z,625.00
2024-03-27T10:31:28.629Z,628.00
2024-03-27T10:32:28.736Z,630.00
2024-03-27T10:33:28.804Z,624.00
2024-03-27T10:34:28.853Z,624.00
2024-03-27T10:35:28.944Z,627.00
2024-03-27T10:36:29.020Z,630.00
2024-03-27T10:37:29.104Z,633.00
2024-03-27T10:38:29.191Z,634.00
2024-03-27T10:39:29.258Z,634.00
2024-03-27T10:40:29.331Z,632.00
2024-03-27T10:41:29.396Z,630.00
2024-03-27T10:42:29.498Z,623.00
2024-03-27T10:43:29.544Z,630.00
2024-03-27T10:44:29.637Z,634.00
2024-03-27T10:45:29.734Z,636.00
2024-03-27T10:46:29.821Z,637.00
2024-03-27T10:47:29.962Z,640.00
2024-03-27T10:48:29.942Z,643.00
2024-03-27T10:49:30.002Z,639.00
2024-03-27T10:50:30.182Z,637.00
2024-03-27T10:51:30.270Z,635.00
2024-03-27T10:52:30.345Z,637.00
2024-03-27T10:53:30.415Z,634.00
2024-03-27T10:54:30.480Z,637.00
2024-03-27T10:55:30.556Z,636.00
2024-03-27T10:56:30.649Z,638.00
2024-03-27T10:57:30.734Z,642.00
2024-03-27T10:58:30.821Z,643.00
2024-03-27T10:59:30.887Z,642.00
2024-03-27T11:00:30.982Z,645.00
2024-03-27T11:01:31.118Z,640.00
2024-03-27T11:02:31.106Z,641.00
2024-03-27T11:03:31.231Z,638.00
2024-03-27T11:04:31.303Z,644.00
2024-03-27T11:05:31.388Z,643.00
2024-03-27T11:06:31.439Z,645.00
2024-03-27T11:07:31.533Z,647.00
2024-03-27T11:08:31.615Z,648.00
2024-03-27T11:09:31.672Z,648.00
2024-03-27T11:10:31.795Z,651.00
2024-03-27T11:11:33.923Z,644.00
2024-03-27T11:12:31.867Z,645.00
2024-03-27T11:13:31.898Z,648.00
2024-03-27T11:14:31.916Z,644.00
2024-03-27T11:15:31.952Z,644.00
2024-03-27T11:16:32.064Z,639.00
2024-03-27T11:17:32.120Z,638.00
2024-03-27T11:18:32.225Z,639.00
2024-03-27T11:19:32.308Z,639.00
2024-03-27T11:20:32.377Z,646.00
2024-03-27T11:21:32.473Z,646.00
2024-03-27T11:22:32.588Z,649.00
2024-03-27T11:23:32.651Z,650.00
2024-03-27T11:24:32.762Z,644.00
2024-03-27T11:25:32.843Z,643.00
2024-03-27T11:26:32.888Z,645.00
2024-03-27T11:27:33.122Z,649.00
2024-03-27T11:28:33.127Z,650.00
2024-03-27T11:29:33.201Z,651.00
2024-03-27T11:30:35.031Z,647.00
2024-03-27T11:31:33.300Z,652.00
2024-03-27T11:32:33.363Z,655.00
2024-03-27T11:33:33.379Z,655.00
2024-03-27T11:34:33.412Z,655.00
2024-03-27T11:35:33.443Z,655.00
2024-03-27T11:36:33.461Z,656.00
2024-03-27T11:37:33.478Z,655.00
2024-03-27T11:38:33.560Z,655.00
2024-03-27T11:39:33.633Z,657.00
2024-03-27T11:40:33.733Z,657.00
2024-03-27T11:41:36.096Z,656.00
2024-03-27T11:42:33.822Z,655.00
2024-03-27T11:43:33.816Z,657.00
2024-03-27T11:44:33.818Z,652.00
2024-03-27T11:45:33.827Z,651.00
2024-03-27T11:46:33.829Z,654.00
2024-03-27T11:47:33.821Z,654.00
2024-03-27T11:48:35.474Z,656.00
2024-03-27T11:49:33.846Z,654.00
2024-03-27T11:50:33.851Z,649.00
2024-03-27T11:51:33.829Z,643.00
2024-03-27T11:52:33.825Z,641.00
2024-03-27T11:53:33.845Z,646.00
2024-03-27T11:54:33.866Z,647.00
2024-03-27T11:55:33.844Z,645.00
2024-03-27T11:56:33.821Z,648.00
2024-03-27T11:57:33.837Z,647.00
2024-03-27T11:58:33.840Z,650.00
2024-03-27T11:59:33.834Z,646.00
2024-03-27T12:00:33.853Z,650.00
2024-03-27T12:01:33.860Z,649.00
2024-03-27T12:02:33.868Z,651.00
2024-03-27T12:03:33.832Z,650.00
2024-03-27T12:04:33.865Z,654.00
2024-03-27T12:05:33.930Z,653.00
2024-03-27T12:06:33.954Z,657.00
2024-03-27T12:07:34.016Z,657.00
2024-03-27T12:08:34.182Z,656.00
2024-03-27T12:09:34.340Z,659.00
2024-03-27T12:10:34.543Z,659.00
2024-03-27T12:11:34.614Z,660.00
2024-03-27T12:12:34.694Z,662.00
2024-03-27T12:13:34.770Z,661.00
2024-03-27T12:14:38.030Z,659.00
2024-03-27T12:15:34.847Z,659.00
2024-03-27T12:16:34.840Z,660.00
2024-03-27T12:17:34.861Z,661.00
2024-03-27T12:18:34.836Z,666.00
2024-03-27T12:19:34.823Z,675.00
2024-03-27T12:20:34.864Z,679.00
2024-03-27T12:21:34.852Z,691.00
2024-03-27T12:22:34.851Z,686.00
2024-03-27T12:23:34.856Z,688.00
2024-03-27T12:24:34.839Z,691.00
2024-03-27T12:25:34.870Z,678.00
2024-03-27T12:26:34.847Z,685.00